createdAt,value
2017-07-25T00:01:01.772Z,87.90
2017-07-25T00:03:31.581Z,87.60
2017-07-25T00:06:00.528Z,87.60
2017-07-25T00:08:29.515Z,87.60
2017-07-25T00:10:58.497Z,87.60
2017-07-25T00:13:27.474Z,87.20
2017-07-25T00:15:56.431Z,87.30
2017-07-25T00:18:25.473Z,87.40
2017-07-25T00:20:54.846Z,87.80
2017-07-25T00:23:23.904Z,87.90
2017-07-25T00:25:53.186Z,88.50
2017-07-25T00:28:22.166Z,88.60
2017-07-25T00:30:51.138Z,88.50
2017-07-25T00:33:20.114Z,87.90
2017-07-25T00:35:49.196Z,88.00
2017-07-25T00:38:18.935Z,88.40
2017-07-25T00:40:47.986Z,88.30
2017-07-25T00:43:17.516Z,88.10
2017-07-25T00:45:46.497Z,88.20
2017-07-25T00:48:15.464Z,88.30
2017-07-25T00:50:44.565Z,88.30
2017-07-25T00:53:13.537Z,88.50
2017-07-25T00:55:42.484Z,88.10
2017-07-25T00:58:11.488Z,88.20
2017-07-25T01:00:40.758Z,88.50
2017-07-25T01:03:10.529Z,88.70
2017-07-25T01:05:40.248Z,88.70
2017-07-25T01:08:09.204Z,89.00
2017-07-25T01:10:38.193Z,88.80
2017-07-25T01:13:07.149Z,88.80
2017-07-25T01:15:36.450Z,88.60
2017-07-25T01:18:05.425Z,88.90
2017-07-25T01:20:34.388Z,88.80
2017-07-25T01:23:03.382Z,88.90
2017-07-25T01:25:32.367Z,88.80
2017-07-25T01:28:01.377Z,89.00
2017-07-25T01:30:30.319Z,89.10
2017-07-25T01:32:59.329Z,89.30
2017-07-25T01:35:28.284Z,89.40
2017-07-25T01:37:58.049Z,89.10
2017-07-25T01:40:27.073Z,89.20
2017-07-25T01:42:56.060Z,89.30
2017-07-25T01:45:25.025Z,89.10
2017-07-25T01:47:53.979Z,88.40
2017-07-25T01:50:23.013Z,88.20
2017-07-25T01:52:52.051Z,88.50
2017-07-25T01:55:21.917Z,88.50
2017-07-25T01:57:50.900Z,88.50
2017-07-25T02:00:19.862Z,88.00
2017-07-25T02:02:48.856Z,88.90
2017-07-25T02:05:17.840Z,88.00
2017-07-25T02:07:46.811Z,88.00
2017-07-25T02:10:15.779Z,88.20
2017-07-25T02:12:44.776Z,88.50
2017-07-25T02:15:13.753Z,88.20
2017-07-25T02:17:42.747Z,87.90
2017-07-25T02:20:11.740Z,87.50
2017-07-25T02:22:40.774Z,87.60
2017-07-25T02:25:10.532Z,88.30
2017-07-25T02:27:39.494Z,88.20
2017-07-25T02:30:08.493Z,88.90
2017-07-25T02:32:37.487Z,89.10
2017-07-25T02:35:06.475Z,88.90
2017-07-25T02:37:35.465Z,88.70
2017-07-25T02:40:04.453Z,88.60
2017-07-25T02:42:33.426Z,88.70
2017-07-25T02:45:03.193Z,89.60
2017-07-25T02:47:32.147Z,88.70
2017-07-25T02:50:01.141Z,88.60
2017-07-25T02:52:30.120Z,89.50
2017-07-25T02:54:59.841Z,88.90
2017-07-25T02:57:28.833Z,88.80
2017-07-25T02:59:57.805Z,88.20
2017-07-25T03:02:27.550Z,88.30
2017-07-25T03:04:56.497Z,88.20
2017-07-25T03:07:25.518Z,88.10
2017-07-25T03:09:54.488Z,87.80
2017-07-25T03:12:24.243Z,87.70
2017-07-25T03:14:53.425Z,87.60
2017-07-25T03:17:22.408Z,88.10
2017-07-25T03:19:51.354Z,88.00
2017-07-25T03:22:20.337Z,88.20
2017-07-25T03:24:49.310Z,88.20
2017-07-25T03:27:18.330Z,88.10
2017-07-25T03:29:47.284Z,88.10
2017-07-25T03:32:16.482Z,87.90
2017-07-25T03:34:45.486Z,87.90
2017-07-25T03:37:14.467Z,88.00
2017-07-25T03:39:43.438Z,88.00
2017-07-25T03:42:12.443Z,87.90
2017-07-25T03:44:41.391Z,87.70
2017-07-25T03:47:10.424Z,87.80
2017-07-25T03:49:39.437Z,87.30
2017-07-25T03:52:08.427Z,87.50
2017-07-25T03:54:37.388Z,87.60
2017-07-25T03:57:06.427Z,87.70
2017-07-25T03:59:35.421Z,88.10
2017-07-25T04:02:05.073Z,88.70
2017-07-25T04:04:34.940Z,88.80
2017-07-25T04:07:03.911Z,88.80
2017-07-25T04:09:32.890Z,88.40
2017-07-25T04:12:01.856Z,88.50
2017-07-25T04:14:31.618Z,88.20
2017-07-25T04:17:00.572Z,88.20
2017-07-25T04:19:29.560Z,88.20
2017-07-25T04:21:59.276Z,88.40
2017-07-25T04:24:29.037Z,88.20
2017-07-25T04:26:57.995Z,88.20
2017-07-25T04:29:27.085Z,87.90
2017-07-25T04:31:56.077Z,88.30
2017-07-25T04:34:25.881Z,87.90
2017-07-25T04:36:54.878Z,88.40
2017-07-25T04:39:24.763Z,88.50
2017-07-25T04:41:54.628Z,88.70
2017-07-25T04:44:23.616Z,88.70
2017-07-25T04:46:52.567Z,88.80
2017-07-25T04:49:22.328Z,89.10
2017-07-25T04:51:51.318Z,89.10
2017-07-25T04:54:20.292Z,89.00
2017-07-25T04:56:49.276Z,89.10
2017-07-25T04:59:18.241Z,89.40
2017-07-25T05:01:48.057Z,89.00
2017-07-25T05:04:17.274Z,89.00
2017-07-25T05:06:47.104Z,89.90
2017-07-25T05:09:16.071Z,89.20
2017-07-25T05:11:45.048Z,89.40
2017-07-25T05:14:14.783Z,89.90
2017-07-25T05:16:43.756Z,89.90
2017-07-25T05:19:12.746Z,90.00
2017-07-25T05:21:42.497Z,90.20
2017-07-25T05:24:11.446Z,89.70
2017-07-25T05:26:41.462Z,89.70
2017-07-25T05:29:10.500Z,90.00
2017-07-25T05:31:39.453Z,90.00
2017-07-25T05:34:08.421Z,90.00
2017-07-25T05:36:37.427Z,90.00
2017-07-25T05:39:06.943Z,90.00
2017-07-25T05:41:35.923Z,89.80
2017-07-25T05:44:05.663Z,90.00
2017-07-25T05:46:34.638Z,90.00
2017-07-25T05:49:04.846Z,90.00
2017-07-25T05:51:33.918Z,90.00
2017-07-25T05:54:05.533Z,90.10
2017-07-25T05:56:34.524Z,90.00
2017-07-25T05:59:03.494Z,89.80
2017-07-25T06:01:32.474Z,90.30
2017-07-25T06:04:01.456Z,89.70
2017-07-25T06:06:31.272Z,89.50
2017-07-25T06:09:01.014Z,89.90
2017-07-25T06:11:29.980Z,89.90
2017-07-25T06:13:59.705Z,89.70
2017-07-25T06:16:28.681Z,89.70
2017-07-25T06:18:57.682Z,89.70
2017-07-25T06:21:26.919Z,89.80
2017-07-25T06:23:55.958Z,89.60
2017-07-25T06:26:25.682Z,90.20
2017-07-25T06:28:54.637Z,90.00
2017-07-25T06:31:23.927Z,90.00
2017-07-25T06:33:52.910Z,89.90
2017-07-25T06:36:21.964Z,90.00
2017-07-25T06:38:50.934Z,89.60
2017-07-25T06:41:20.749Z,89.30
2017-07-25T06:43:49.725Z,90.00
2017-07-25T06:46:18.705Z,89.20
2017-07-25T06:48:47.671Z,89.00
2017-07-25T06:51:16.972Z,88.70
2017-07-25T06:53:45.924Z,88.90
2017-07-25T06:56:15.008Z,89.30
2017-07-25T06:58:44.731Z,89.00
2017-07-25T07:01:13.966Z,89.00
2017-07-25T07:03:43.744Z,88.50
2017-07-25T07:06:13.041Z,88.40
2017-07-25T07:08:44.090Z,88.60
2017-07-25T07:11:13.082Z,88.60
2017-07-25T07:13:42.036Z,88.50
2017-07-25T07:16:11.011Z,88.00
2017-07-25T07:18:39.973Z,88.40
2017-07-25T07:21:09.033Z,89.00
2017-07-25T07:23:38.774Z,88.30
2017-07-25T07:26:07.713Z,88.30
2017-07-25T07:28:36.693Z,88.30
2017-07-25T07:31:06.900Z,88.00
2017-07-25T07:33:36.165Z,88.00
2017-07-25T07:36:05.124Z,87.90
2017-07-25T07:38:34.122Z,88.30
2017-07-25T07:41:03.215Z,87.60
2017-07-25T07:43:32.190Z,87.20
2017-07-25T07:46:01.304Z,87.30
2017-07-25T07:48:30.262Z,86.30
2017-07-25T07:50:59.234Z,87.40
2017-07-25T07:53:28.186Z,87.70
2017-07-25T07:55:57.179Z,88.00
2017-07-25T07:58:26.161Z,87.20
2017-07-25T08:00:56.687Z,86.90
2017-07-25T08:03:25.729Z,86.90
2017-07-25T08:05:55.418Z,86.70
2017-07-25T08:08:24.385Z,87.70
2017-07-25T08:10:53.416Z,87.10
2017-07-25T08:13:22.373Z,87.00
2017-07-25T08:15:51.732Z,86.40
2017-07-25T08:18:20.700Z,86.30
2017-07-25T08:20:49.668Z,84.70
2017-07-25T08:23:18.720Z,84.70
2017-07-25T08:25:47.752Z,84.80
2017-07-25T08:28:16.940Z,84.80
2017-07-25T08:30:47.124Z,84.30
2017-07-25T08:33:16.129Z,84.30
2017-07-25T08:35:45.081Z,84.50
2017-07-25T08:38:14.056Z,84.00
2017-07-25T08:40:43.023Z,84.30
2017-07-25T08:43:11.964Z,84.20
2017-07-25T08:45:41.457Z,82.70
2017-07-25T08:48:12.912Z,83.50
2017-07-25T08:50:41.882Z,83.30
2017-07-25T08:53:10.993Z,84.30
2017-07-25T08:55:40.028Z,84.70
2017-07-25T08:58:08.977Z,84.10
2017-07-25T09:00:37.927Z,83.20
2017-07-25T09:03:07.984Z,82.20
2017-07-25T09:05:36.973Z,82.20
2017-07-25T09:08:05.990Z,82.10
2017-07-25T09:10:34.948Z,81.50
2017-07-25T09:13:03.896Z,83.30
2017-07-25T09:15:32.874Z,84.50
2017-07-25T09:18:01.835Z,86.00
2017-07-25T09:20:30.776Z,86.10
2017-07-25T09:23:14.740Z,87.20
2017-07-25T09:25:44.922Z,87.80
2017-07-25T09:28:13.914Z,86.00
2017-07-25T09:30:42.860Z,85.80
2017-07-25T09:33:11.982Z,86.50
2017-07-25T09:35:40.944Z,84.20
2017-07-25T09:38:09.965Z,84.00
2017-07-25T09:40:39.239Z,84.20
2017-07-25T09:43:08.205Z,82.80
2017-07-25T09:45:37.188Z,82.40
2017-07-25T09:48:07.011Z,83.70
2017-07-25T09:50:36.721Z,81.30
2017-07-25T09:53:06.455Z,82.50
2017-07-25T09:55:35.413Z,82.40
2017-07-25T09:58:04.515Z,82.30
2017-07-25T10:00:33.456Z,81.20
2017-07-25T10:03:02.417Z,80.80
2017-07-25T10:05:32.164Z,82.00
2017-07-25T10:08:01.101Z,82.00
2017-07-25T10:10:30.052Z,77.80
2017-07-25T10:12:59.096Z,79.90
2017-07-25T10:15:28.072Z,79.10
2017-07-25T10:17:57.037Z,77.70
2017-07-25T10:20:26.035Z,76.70
2017-07-25T10:22:54.970Z,76.70
2017-07-25T10:25:23.906Z,76.50
2017-07-25T10:27:53.027Z,77.40
2017-07-25T10:30:21.996Z,79.00
2017-07-25T10:32:50.955Z,75.60
2017-07-25T10:35:19.924Z,74.90
2017-07-25T10:37:48.903Z,75.30
2017-07-25T10:40:18.635Z,73.50
2017-07-25T10:42:47.599Z,73.40
2017-07-25T10:45:16.555Z,72.70
2017-07-25T10:47:45.517Z,74.90
2017-07-25T10:50:14.780Z,71.90
2017-07-25T10:52:44.550Z,73.70
2017-07-25T10:55:13.508Z,73.70
2017-07-25T10:57:42.459Z,72.10
2017-07-25T11:00:11.433Z,70.90
2017-07-25T11:02:40.590Z,72.90
2017-07-25T11:05:10.445Z,72.70
2017-07-25T11:07:39.415Z,72.60
2017-07-25T11:10:08.375Z,72.40
2017-07-25T11:12:37.777Z,74.00
2017-07-25T11:15:07.498Z,79.00
2017-07-25T11:17:36.481Z,78.80
2017-07-25T11:20:06.126Z,80.40
2017-07-25T11:22:35.240Z,81.40
2017-07-25T11:25:04.176Z,81.60
2017-07-25T11:27:33.155Z,83.10
2017-07-25T11:30:02.912Z,85.50
2017-07-25T11:32:31.868Z,85.80
2017-07-25T11:35:00.840Z,85.20
2017-07-25T11:37:30.571Z,87.90
2017-07-25T11:39:59.650Z,87.90
2017-07-25T11:42:29.361Z,88.40
2017-07-25T11:44:58.367Z,87.80
2017-07-25T11:47:27.319Z,87.10
2017-07-25T11:49:56.327Z,87.70
2017-07-25T11:52:26.031Z,87.40
2017-07-25T11:54:55.902Z,89.60
2017-07-25T11:57:26.210Z,87.20
2017-07-25T11:59:55.198Z,87.20
2017-07-25T12:02:24.231Z,86.60
2017-07-25T12:04:53.212Z,84.40
2017-07-25T12:07:23.331Z,86.50
2017-07-25T12:09:52.310Z,86.40
2017-07-25T12:12:21.269Z,85.40
2017-07-25T12:14:50.274Z,87.60
2017-07-25T12:17:19.297Z,88.00
2017-07-25T12:19:48.377Z,88.70
2017-07-25T12:22:17.416Z,87.20
2017-07-25T12:24:46.388Z,87.50
2017-07-25T12:27:15.373Z,87.20
2017-07-25T12:29:44.400Z,86.20
2017-07-25T12:32:13.350Z,85.40
2017-07-25T12:34:43.628Z,85.30
2017-07-25T12:37:12.577Z,85.20
2017-07-25T12:39:41.581Z,84.90
2017-07-25T12:42:10.636Z,84.40
2017-07-25T12:44:39.602Z,85.20
2017-07-25T12:47:09.391Z,83.90
2017-07-25T12:49:38.345Z,83.70
2017-07-25T12:52:07.301Z,84.90
2017-07-25T12:54:36.308Z,84.80
2017-07-25T12:57:05.271Z,84.20
2017-07-25T12:59:35.391Z,85.80
2017-07-25T13:02:16.792Z,85.70
2017-07-25T13:04:45.778Z,85.50
2017-07-25T13:07:15.506Z,87.00
2017-07-25T13:09:44.482Z,87.00
2017-07-25T13:12:13.499Z,86.30
2017-07-25T13:14:42.659Z,85.60
2017-07-25T13:17:11.654Z,83.40
2017-07-25T13:19:40.643Z,83.60
2017-07-25T13:22:10.426Z,81.70
2017-07-25T13:24:39.429Z,81.60
2017-07-25T13:27:08.416Z,82.50
2017-07-25T13:29:37.374Z,82.00
2017-07-25T13:32:06.358Z,81.10
2017-07-25T13:34:35.327Z,81.90
2017-07-25T13:37:05.080Z,85.30
2017-07-25T13:39:34.019Z,85.20
2017-07-25T13:42:03.748Z,85.10
2017-07-25T13:44:32.756Z,85.00
2017-07-25T13:47:02.821Z,85.00
2017-07-25T13:49:32.056Z,84.60
2017-07-25T13:52:01.170Z,83.50
2017-07-25T13:54:30.162Z,84.90
2017-07-25T13:56:59.112Z,84.90
2017-07-25T13:59:28.092Z,85.60
2017-07-25T14:01:57.194Z,86.20
2017-07-25T14:04:27.874Z,86.60
2017-07-25T14:06:56.934Z,86.60
2017-07-25T14:09:26.713Z,86.90
2017-07-25T14:11:56.312Z,86.80
2017-07-25T14:14:25.320Z,87.50
2017-07-25T14:16:55.009Z,86.80
2017-07-25T14:19:24.105Z,87.70
2017-07-25T14:21:53.092Z,87.50
2017-07-25T14:24:22.079Z,87.90
2017-07-25T14:26:51.046Z,89.10
2017-07-25T14:29:20.047Z,88.60
2017-07-25T14:31:49.023Z,87.80
2017-07-25T14:34:18.101Z,88.20
2017-07-25T14:36:47.883Z,87.60
2017-07-25T14:39:16.873Z,87.60
2017-07-25T14:41:45.925Z,87.20
2017-07-25T14:44:14.957Z,87.10
2017-07-25T14:46:43.924Z,87.30
2017-07-25T14:49:12.923Z,86.80
2017-07-25T14:51:41.900Z,86.20
2017-07-25T14:54:10.844Z,86.40
2017-07-25T14:56:39.814Z,86.40
2017-07-25T14:59:09.998Z,86.40
2017-07-25T15:01:38.989Z,86.30
2017-07-25T15:04:08.041Z,86.40
2017-07-25T15:06:38.245Z,88.20
2017-07-25T15:09:07.294Z,87.30
2017-07-25T15:11:36.333Z,86.00
2017-07-25T15:14:05.313Z,85.70
2017-07-25T15:16:34.394Z,85.70
2017-07-25T15:19:03.590Z,85.70
2017-07-25T15:21:33.906Z,86.50
2017-07-25T15:24:02.872Z,86.50
2017-07-25T15:26:31.900Z,86.20
2017-07-25T15:29:00.857Z,85.10
2017-07-25T15:31:29.833Z,85.60
2017-07-25T15:33:59.558Z,85.00
2017-07-25T15:36:28.527Z,85.00
2017-07-25T15:38:58.242Z,85.50
2017-07-25T15:41:27.635Z,85.40
2017-07-25T15:43:57.358Z,86.60
2017-07-25T15:46:27.179Z,85.20
2017-07-25T15:48:56.157Z,85.10
2017-07-25T15:51:25.918Z,85.70
2017-07-25T15:53:54.892Z,85.70
2017-07-25T15:56:23.833Z,84.60
2017-07-25T15:58:52.810Z,84.60
2017-07-25T16:01:21.752Z,85.00
2017-07-25T16:03:50.823Z,84.60
2017-07-25T16:06:19.807Z,84.30
2017-07-25T16:08:48.747Z,83.40
2017-07-25T16:11:17.714Z,83.40
2017-07-25T16:13:46.692Z,84.60
2017-07-25T16:16:16.037Z,84.70
2017-07-25T16:18:45.079Z,83.30
2017-07-25T16:21:14.813Z,82.70
2017-07-25T16:23:43.776Z,82.70
2017-07-25T16:26:12.725Z,83.00
2017-07-25T16:28:41.685Z,83.70
2017-07-25T16:31:10.655Z,82.90
2017-07-25T16:33:39.963Z,83.90
2017-07-25T16:36:09.716Z,82.90
2017-07-25T16:38:38.713Z,82.90
2017-07-25T16:41:07.684Z,83.40
2017-07-25T16:43:36.798Z,83.10
2017-07-25T16:46:05.934Z,84.20
2017-07-25T16:48:34.945Z,83.90
2017-07-25T16:51:07.617Z,82.60
2017-07-25T16:53:36.630Z,82.40
2017-07-25T16:56:05.780Z,82.20
2017-07-25T16:58:34.771Z,83.40
2017-07-25T17:01:03.892Z,82.70
2017-07-25T17:03:33.622Z,81.20
2017-07-25T17:06:02.671Z,81.20
2017-07-25T17:08:31.588Z,81.80
2017-07-25T17:11:01.550Z,81.10
2017-07-25T17:13:30.520Z,81.10
2017-07-25T17:16:00.525Z,80.70
2017-07-25T17:18:30.265Z,80.70
2017-07-25T17:21:03.461Z,80.70
2017-07-25T17:23:32.422Z,81.40
2017-07-25T17:26:02.351Z,81.00
2017-07-25T17:28:35.181Z,81.00
2017-07-25T17:31:10.266Z,81.40
2017-07-25T17:33:39.241Z,81.20
2017-07-25T17:36:08.211Z,81.00
2017-07-25T17:38:37.447Z,81.60
2017-07-25T17:41:06.381Z,80.80
2017-07-25T17:43:35.339Z,82.00
2017-07-25T17:46:04.394Z,80.70
2017-07-25T17:48:33.402Z,81.60
2017-07-25T17:51:02.376Z,82.40
2017-07-25T17:53:32.129Z,81.80
2017-07-25T17:56:01.088Z,81.70
2017-07-25T17:58:30.065Z,82.00
2017-07-25T18:00:59.134Z,81.80
2017-07-25T18:03:28.101Z,80.80
2017-07-25T18:05:57.211Z,81.40
2017-07-25T18:08:26.149Z,82.20
2017-07-25T18:10:55.164Z,82.40
2017-07-25T18:13:27.094Z,82.30
2017-07-25T18:15:56.951Z,81.80
2017-07-25T18:18:25.956Z,81.70
2017-07-25T18:20:54.918Z,81.10
2017-07-25T18:23:23.915Z,81.40
2017-07-25T18:25:53.515Z,82.40
2017-07-25T18:28:22.632Z,80.40
2017-07-25T18:30:51.586Z,81.00
2017-07-25T18:33:21.346Z,82.70
2017-07-25T18:35:50.291Z,82.70
2017-07-25T18:38:19.237Z,82.60
2017-07-25T18:40:48.207Z,82.30
2017-07-25T18:43:17.273Z,81.60
2017-07-25T18:45:46.346Z,82.10
2017-07-25T18:48:16.166Z,82.80
2017-07-25T18:50:45.900Z,82.20
2017-07-25T18:53:14.872Z,82.20
2017-07-25T18:55:44.706Z,81.80
2017-07-25T18:58:14.586Z,82.90
2017-07-25T19:00:44.311Z,82.20
2017-07-25T19:03:13.289Z,82.10
2017-07-25T19:05:43.029Z,83.30
2017-07-25T19:08:11.999Z,82.60
2017-07-25T19:10:41.725Z,82.10
2017-07-25T19:13:10.657Z,82.00
2017-07-25T19:15:39.642Z,83.10
2017-07-25T19:18:08.605Z,83.40
2017-07-25T19:20:37.717Z,83.80
2017-07-25T19:23:06.797Z,82.10
2017-07-25T19:25:35.760Z,82.10
2017-07-25T19:28:05.047Z,82.00
2017-07-25T19:30:34.029Z,81.80
2017-07-25T19:33:04.071Z,81.80
2017-07-25T19:35:33.844Z,82.20
2017-07-25T19:38:02.800Z,82.10
2017-07-25T19:40:31.787Z,82.10
2017-07-25T19:43:01.682Z,83.60
2017-07-25T19:45:30.681Z,83.60
2017-07-25T19:48:00.395Z,83.80
2017-07-25T19:50:29.396Z,82.80
2017-07-25T19:52:59.179Z,83.90
2017-07-25T19:55:28.985Z,82.90
2017-07-25T19:57:58.726Z,83.00
2017-07-25T20:00:27.756Z,82.90
2017-07-25T20:02:57.396Z,82.80
2017-07-25T20:05:26.378Z,82.90
2017-07-25T20:07:55.345Z,83.50
2017-07-25T20:10:24.763Z,83.40
2017-07-25T20:12:54.529Z,83.60
2017-07-25T20:15:23.594Z,83.60
2017-07-25T20:17:52.717Z,83.40
2017-07-25T20:20:21.681Z,83.60
2017-07-25T20:22:51.455Z,83.60
2017-07-25T20:25:22.356Z,83.60
2017-07-25T20:27:51.465Z,83.30
2017-07-25T20:30:20.452Z,83.00
2017-07-25T20:32:49.412Z,83.60
2017-07-25T20:35:19.251Z,83.00
2017-07-25T20:37:48.306Z,83.00
2017-07-25T20:40:17.265Z,83.00
2017-07-25T20:42:46.214Z,83.10
2017-07-25T20:45:16.048Z,83.60
2017-07-25T20:47:45.939Z,83.70
2017-07-25T20:50:14.963Z,82.90
2017-07-25T20:52:44.021Z,83.20
2017-07-25T20:55:13.047Z,83.30
2017-07-25T20:57:42.801Z,83.30
2017-07-25T21:00:11.770Z,83.80
2017-07-25T21:02:40.724Z,83.80
2017-07-25T21:05:09.718Z,82.80
2017-07-25T21:07:38.736Z,83.50
2017-07-25T21:10:07.740Z,83.10
2017-07-25T21:12:37.921Z,83.80
2017-07-25T21:15:06.874Z,83.50
2017-07-25T21:17:36.633Z,83.70
2017-07-25T21:20:05.613Z,83.70
2017-07-25T21:22:34.597Z,83.60
2017-07-25T21:25:03.545Z,83.50
2017-07-25T21:27:32.528Z,83.90
2017-07-25T21:30:01.482Z,83.30
2017-07-25T21:32:30.453Z,83.00
2017-07-25T21:35:01.711Z,83.70
2017-07-25T21:37:30.722Z,83.70
2017-07-25T21:39:59.686Z,84.20
2017-07-25T21:42:28.667Z,83.50
2017-07-25T21:44:58.373Z,83.60
2017-07-25T21:47:28.118Z,84.10
2017-07-25T21:49:57.439Z,83.90
2017-07-25T21:52:27.112Z,83.50
2017-07-25T21:54:56.058Z,84.10
2017-07-25T21:57:25.724Z,84.00
2017-07-25T21:59:54.670Z,83.90
2017-07-25T22:02:35.541Z,84.00
2017-07-25T22:05:05.323Z,85.10
2017-07-25T22:07:34.268Z,85.00
2017-07-25T22:10:03.240Z,84.90
2017-07-25T22:12:32.980Z,84.60
2017-07-25T22:15:01.936Z,85.40
2017-07-25T22:17:30.914Z,84.80
2017-07-25T22:20:00.874Z,85.60
2017-07-25T22:22:29.854Z,85.40
2017-07-25T22:24:58.854Z,85.70
2017-07-25T22:27:27.810Z,85.60
2017-07-25T22:29:56.754Z,85.80
2017-07-25T22:32:27.684Z,86.40
2017-07-25T22:34:57.090Z,86.30
2017-07-25T22:37:27.005Z,85.70
2017-07-25T22:39:55.956Z,85.80
2017-07-25T22:42:25.692Z,86.00
2017-07-25T22:44:54.670Z,85.90
2017-07-25T22:47:23.628Z,86.10
2017-07-25T22:49:52.798Z,86.10
2017-07-25T22:52:22.667Z,86.00
2017-07-25T22:54:51.666Z,86.00
2017-07-25T22:57:20.618Z,85.60
2017-07-25T22:59:50.003Z,85.30
2017-07-25T23:02:18.978Z,85.30
2017-07-25T23:04:47.938Z,84.70
2017-07-25T23:07:17.671Z,85.20
2017-07-25T23:09:46.642Z,85.20
2017-07-25T23:12:16.386Z,85.30
2017-07-25T23:14:45.351Z,85.30
2017-07-25T23:17:14.297Z,85.10
2017-07-25T23:19:43.361Z,84.70
2017-07-25T23:22:12.338Z,84.70
2017-07-25T23:24:41.317Z,84.90
2017-07-25T23:27:10.290Z,85.10
2017-07-25T23:29:40.018Z,85.40
2017-07-25T23:32:08.976Z,85.40
2017-07-25T23:34:37.958Z,85.90
2017-07-25T23:37:06.976Z,85.80
2017-07-25T23:39:35.956Z,85.60
2017-07-25T23:42:05.087Z,85.90
2017-07-25T23:44:34.063Z,86.20
2017-07-25T23:47:03.029Z,86.60
2017-07-25T23:49:32.019Z,86.40
2017-07-25T23:52:00.952Z,86.40
2017-07-25T23:54:29.928Z,86.50
2017-07-25T23:56:58.886Z,86.80
2017-07-25T23:59:27.865Z,86.80
